Terminal Aerodrome Forecast
Issued by NWS

Home | Current Version | Previous Version | Text Only | Print | Product List | Glossary On
Versions: 1 2 3 4 5 6 7 8 9 10 11 12 13 14 15 16 17 18 19
927
FTUS43 KAPX 162342
TAFPLN
TAF
KPLN 162342Z 1700/1724 00000KT P6SM SCT250
     FM170600 VRB03KT P6SM OVC100
     FM170900 08005KT 5SM -SN BR OVC015
     FM171000 08005KT 3SM -SNPL BR OVC008
     FM171200 08007KT 1 1/2SM -PL OVC008
     FM171800 06007KT 3SM BR OVC003=

USA.gov is the U.S. government's official web portal to all federal, state and local government web resources and services.